createdAt,value
2023-03-05T00:01:17.614Z,100267.26
2023-03-05T00:03:45.409Z,100275.95
2023-03-05T00:06:12.793Z,100282.02
2023-03-05T00:08:39.928Z,100282.67
2023-03-05T00:11:09.188Z,100288.10
2023-03-05T00:13:38.684Z,100293.25
2023-03-05T00:16:07.431Z,100291.84
2023-03-05T00:18:35.201Z,100284.56
2023-03-05T00:21:02.548Z,100309.84
2023-03-05T00:23:29.614Z,100310.80
2023-03-05T00:25:56.888Z,100306.44
2023-03-05T00:28:23.910Z,100321.38
2023-03-05T00:30:50.808Z,100305.49
2023-03-05T00:33:19.132Z,100306.80
2023-03-05T00:35:46.585Z,100302.96
2023-03-05T00:38:14.758Z,100302.64
2023-03-05T00:40:43.134Z,100300.88
2023-03-05T00:43:12.145Z,100297.82
2023-03-05T00:45:40.958Z,100301.96
2023-03-05T00:48:09.630Z,100299.64
2023-03-05T00:50:37.843Z,100300.13
2023-03-05T00:53:04.856Z,100302.05
2023-03-05T00:55:32.460Z,100307.11
2023-03-05T00:57:59.624Z,100308.41
2023-03-05T01:00:26.932Z,100307.88
2023-03-05T01:02:54.512Z,100311.43
2023-03-05T01:05:23.441Z,100312.71
2023-03-05T01:07:53.233Z,100312.48
2023-03-05T01:10:20.211Z,100314.96
2023-03-05T01:12:47.355Z,100316.28
2023-03-05T01:15:14.743Z,100315.19
2023-03-05T01:17:41.800Z,100322.04
2023-03-05T01:20:14.580Z,100324.25
2023-03-05T01:22:41.790Z,100327.70
2023-03-05T01:25:09.124Z,100329.19
2023-03-05T01:27:37.688Z,100328.20
2023-03-05T01:30:05.477Z,100329.64
2023-03-05T01:32:35.844Z,100329.52
2023-03-05T01:35:03.591Z,100331.34
2023-03-05T01:37:30.891Z,100332.91
2023-03-05T01:39:57.928Z,100335.96
2023-03-05T01:42:27.660Z,100332.81
2023-03-05T01:45:07.367Z,100333.98
2023-03-05T01:47:34.438Z,100336.13
2023-03-05T01:50:02.359Z,100339.52
2023-03-05T01:52:31.582Z,100335.41
2023-03-05T01:55:00.435Z,100338.19
2023-03-05T01:57:38.176Z,100339.23
2023-03-05T02:00:14.087Z,100337.83
2023-03-05T02:02:43.405Z,100339.94
2023-03-05T02:05:26.606Z,100343.47
2023-03-05T02:07:57.954Z,100345.04
2023-03-05T02:10:38.667Z,100349.98
2023-03-05T02:13:08.910Z,100356.61
2023-03-05T02:15:36.049Z,100366.42
2023-03-05T02:18:03.339Z,100372.92
2023-03-05T02:20:44.841Z,100379.70
2023-03-05T02:23:12.007Z,100385.13
2023-03-05T02:25:40.482Z,100387.08
2023-03-05T02:28:22.554Z,100395.07
2023-03-05T02:30:49.681Z,100398.27
2023-03-05T02:33:16.990Z,100405.55
2023-03-05T02:35:45.744Z,100409.42
2023-03-05T02:38:13.632Z,100418.17
2023-03-05T02:40:40.732Z,100416.94
2023-03-05T02:43:08.161Z,100419.24
2023-03-05T02:45:35.216Z,100433.92
2023-03-05T02:48:02.105Z,100435.49
2023-03-05T02:50:29.408Z,100434.66
2023-03-05T02:52:56.392Z,100434.23
2023-03-05T02:55:23.649Z,100429.42
2023-03-05T02:57:50.579Z,100432.02
2023-03-05T03:00:18.075Z,100429.50
2023-03-05T03:02:45.019Z,100430.33
2023-03-05T03:05:12.014Z,100432.95
2023-03-05T03:07:39.260Z,100436.66
2023-03-05T03:10:06.835Z,100446.33
2023-03-05T03:12:38.859Z,100442.62
2023-03-05T03:15:07.057Z,100442.95
2023-03-05T03:17:36.903Z,100441.65
2023-03-05T03:20:04.752Z,100439.20
2023-03-05T03:22:31.940Z,100440.42
2023-03-05T03:24:59.914Z,100445.48
2023-03-05T03:27:27.447Z,100447.75
2023-03-05T03:29:54.609Z,100447.92
2023-03-05T03:32:21.619Z,100448.80
2023-03-05T03:34:48.563Z,100455.14
2023-03-05T03:37:15.849Z,100454.61
2023-03-05T03:39:42.905Z,100449.56
2023-03-05T03:42:09.929Z,100449.66
2023-03-05T03:44:36.885Z,100447.86
2023-03-05T03:47:04.117Z,100453.59
2023-03-05T03:49:31.190Z,100456.49
2023-03-05T03:51:59.191Z,100459.19
2023-03-05T03:54:26.122Z,100461.69
2023-03-05T03:56:53.654Z,100469.31
2023-03-05T03:59:20.862Z,100470.25
2023-03-05T04:01:47.928Z,100467.50
2023-03-05T04:04:14.934Z,100473.49
2023-03-05T04:06:42.511Z,100476.70
2023-03-05T04:09:13.380Z,100474.06
2023-03-05T04:11:41.057Z,100480.55
2023-03-05T04:14:08.061Z,100474.76
2023-03-05T04:16:36.979Z,100486.36
2023-03-05T04:19:04.088Z,100485.33
2023-03-05T04:21:31.076Z,100487.21
2023-03-05T04:23:58.164Z,100489.42
2023-03-05T04:26:25.248Z,100490.39
2023-03-05T04:28:52.678Z,100487.67
2023-03-05T04:31:23.229Z,100488.65
2023-03-05T04:33:50.665Z,100484.20
2023-03-05T04:36:17.580Z,100494.34
2023-03-05T04:38:46.274Z,100498.53
2023-03-05T04:41:13.400Z,100501.67
2023-03-05T04:43:40.282Z,100506.00
2023-03-05T04:46:07.333Z,100511.39
2023-03-05T04:48:34.508Z,100513.33
2023-03-05T04:51:02.221Z,100515.98
2023-03-05T04:53:30.030Z,100518.46
2023-03-05T04:56:01.038Z,100518.98
2023-03-05T04:58:28.442Z,100520.54
2023-03-05T05:01:00.668Z,100523.11
2023-03-05T05:03:27.922Z,100519.37
2023-03-05T05:05:55.881Z,100526.19
2023-03-05T05:08:23.332Z,100525.64
2023-03-05T05:11:02.309Z,100521.59
2023-03-05T05:13:30.382Z,100523.14
2023-03-05T05:15:57.689Z,100527.34
2023-03-05T05:18:24.927Z,100529.05
2023-03-05T05:20:52.784Z,100529.44
2023-03-05T05:23:21.394Z,100539.39
2023-03-05T05:25:56.463Z,100545.98
2023-03-05T05:28:23.449Z,100549.77
2023-03-05T05:30:50.398Z,100555.38
2023-03-05T05:33:17.340Z,100559.13
2023-03-05T05:35:44.731Z,100558.60
2023-03-05T05:38:12.025Z,100561.43
2023-03-05T05:40:39.792Z,100563.13
2023-03-05T05:43:06.926Z,100569.65
2023-03-05T05:45:34.256Z,100569.51
2023-03-05T05:48:01.950Z,100572.00
2023-03-05T05:50:29.158Z,100571.23
2023-03-05T05:52:56.659Z,100576.55
2023-03-05T05:55:23.923Z,100588.52
2023-03-05T05:58:10.860Z,100598.11
2023-03-05T06:00:44.087Z,100604.91
2023-03-05T06:03:12.221Z,100617.07
2023-03-05T06:05:43.978Z,100622.70
2023-03-05T06:08:12.619Z,100631.15
2023-03-05T06:10:39.684Z,100634.98
2023-03-05T06:13:13.918Z,100635.06
2023-03-05T06:15:41.763Z,100642.44
2023-03-05T06:18:09.098Z,100646.36
2023-03-05T06:20:37.598Z,100647.81
2023-03-05T06:23:06.916Z,100655.01
2023-03-05T06:25:34.315Z,100655.78
2023-03-05T06:28:01.367Z,100658.89
2023-03-05T06:30:29.059Z,100664.17
2023-03-05T06:32:56.073Z,100664.73
2023-03-05T06:35:24.624Z,100672.23
2023-03-05T06:37:53.012Z,100671.77
2023-03-05T06:40:20.274Z,100668.94
2023-03-05T06:42:47.739Z,100671.54
2023-03-05T06:45:15.299Z,100669.89
2023-03-05T06:47:42.754Z,100670.49
2023-03-05T06:50:10.473Z,100671.13
2023-03-05T06:52:40.459Z,100673.02
2023-03-05T06:55:11.316Z,100673.96
2023-03-05T06:57:39.425Z,100675.83
2023-03-05T07:00:11.263Z,100682.63
2023-03-05T07:02:38.819Z,100688.63
2023-03-05T07:05:06.649Z,100683.70
2023-03-05T07:07:36.137Z,100682.14
2023-03-05T07:10:03.779Z,100685.30
2023-03-05T07:12:34.445Z,100689.64
2023-03-05T07:15:01.489Z,100688.01
2023-03-05T07:17:28.603Z,100687.85
2023-03-05T07:19:55.568Z,100688.70
2023-03-05T07:22:23.952Z,100690.61
2023-03-05T07:24:54.652Z,100693.77
2023-03-05T07:27:25.067Z,100683.80
2023-03-05T07:29:51.969Z,100678.71
2023-03-05T07:32:18.992Z,100677.15
2023-03-05T07:34:45.855Z,100672.52
2023-03-05T07:37:13.486Z,100671.14
2023-03-05T07:39:42.801Z,100666.61
2023-03-05T07:42:15.203Z,100664.16
2023-03-05T07:44:52.322Z,100662.39
2023-03-05T07:47:19.699Z,100662.65
2023-03-05T07:49:46.885Z,100659.33
2023-03-05T07:52:15.166Z,100660.23
2023-03-05T07:54:42.686Z,100661.45
2023-03-05T07:57:10.619Z,100655.02
2023-03-05T07:59:37.892Z,100650.79
2023-03-05T08:02:05.287Z,100648.45
2023-03-05T08:04:32.530Z,100648.23
2023-03-05T08:06:59.757Z,100643.01
2023-03-05T08:09:28.690Z,100644.27
2023-03-05T08:11:59.894Z,100648.54
2023-03-05T08:14:28.428Z,100646.01
2023-03-05T08:16:55.633Z,100644.89
2023-03-05T08:19:22.832Z,100645.38
2023-03-05T08:21:49.807Z,100638.02
2023-03-05T08:24:16.847Z,100636.83
2023-03-05T08:26:45.706Z,100636.33
2023-03-05T08:29:12.674Z,100637.77
2023-03-05T08:31:44.850Z,100635.69
2023-03-05T08:34:12.069Z,100637.70
2023-03-05T08:36:39.024Z,100635.64
2023-03-05T08:39:08.044Z,100627.68
2023-03-05T08:41:36.035Z,100622.59
2023-03-05T08:44:04.288Z,100627.86
2023-03-05T08:46:32.051Z,100623.81
2023-03-05T08:48:59.603Z,100616.13
2023-03-05T08:51:26.984Z,100613.40
2023-03-05T08:53:55.229Z,100613.77
2023-03-05T08:56:25.754Z,100610.85
2023-03-05T08:58:52.936Z,100610.80
2023-03-05T09:01:20.440Z,100607.94
2023-03-05T09:03:47.891Z,100609.06
2023-03-05T09:06:15.024Z,100608.67
2023-03-05T09:08:43.144Z,100604.55
2023-03-05T09:11:11.659Z,100606.96
2023-03-05T09:13:38.916Z,100607.96
2023-03-05T09:16:10.889Z,100605.92
2023-03-05T09:18:41.550Z,100603.17
2023-03-05T09:21:10.778Z,100606.38
2023-03-05T09:23:38.238Z,100604.27
2023-03-05T09:26:06.668Z,100599.72
2023-03-05T09:28:39.810Z,100598.54
2023-03-05T09:31:08.104Z,100604.40
2023-03-05T09:33:35.682Z,100605.86
2023-03-05T09:36:03.010Z,100595.09
2023-03-05T09:38:30.253Z,100594.95
2023-03-05T09:40:59.105Z,100595.23
2023-03-05T09:43:34.871Z,100595.11
2023-03-05T09:46:18.875Z,100592.98
2023-03-05T09:48:52.018Z,100579.10
2023-03-05T09:51:27.825Z,100577.95
2023-03-05T09:54:03.003Z,100582.05
2023-03-05T09:56:35.615Z,100578.81
2023-03-05T09:59:17.038Z,100576.48
2023-03-05T10:01:43.857Z,100577.35
2023-03-05T10:04:15.184Z,100571.22
2023-03-05T10:07:04.502Z,100574.27
2023-03-05T10:09:45.314Z,100566.86
2023-03-05T10:12:42.105Z,100557.59
2023-03-05T10:15:26.817Z,100551.67
2023-03-05T10:17:58.697Z,100554.33
2023-03-05T10:20:26.974Z,100549.09
2023-03-05T10:23:29.919Z,100545.60
2023-03-05T10:26:24.973Z,100536.87
2023-03-05T10:29:08.392Z,100541.71
2023-03-05T10:31:35.597Z,100529.30
2023-03-05T10:34:14.784Z,100517.54
2023-03-05T10:37:02.851Z,100511.20
2023-03-05T10:39:49.034Z,100514.73
2023-03-05T10:42:42.915Z,100517.56
2023-03-05T10:45:28.533Z,100507.62
2023-03-05T10:48:01.934Z,100498.45
2023-03-05T10:50:38.338Z,100492.92
2023-03-05T10:53:24.388Z,100479.02
2023-03-05T10:55:58.165Z,100477.42
2023-03-05T10:58:26.720Z,100471.76
2023-03-05T11:01:12.330Z,100473.34
2023-03-05T11:03:56.338Z,100466.70
2023-03-05T11:06:26.424Z,100468.67
2023-03-05T11:08:53.402Z,100466.61
2023-03-05T11:11:21.415Z,100467.29
2023-03-05T11:13:55.723Z,100462.94
2023-03-05T11:16:28.106Z,100453.33
2023-03-05T11:19:15.050Z,100452.54
2023-03-05T11:21:43.764Z,100448.56
2023-03-05T11:24:18.923Z,100443.95
2023-03-05T11:26:56.316Z,100446.77
2023-03-05T11:29:26.507Z,100439.52
2023-03-05T11:31:54.221Z,100449.20
2023-03-05T11:34:39.416Z,100447.94
2023-03-05T11:37:06.603Z,100447.45
2023-03-05T11:39:36.219Z,100446.58
2023-03-05T11:42:10.640Z,100443.78
2023-03-05T11:44:43.672Z,100440.48
2023-03-05T11:47:19.549Z,100438.69
2023-03-05T11:49:51.917Z,100433.83
2023-03-05T11:52:27.823Z,100434.64
2023-03-05T11:54:58.057Z,100432.52
2023-03-05T11:57:24.931Z,100421.84
2023-03-05T11:59:52.388Z,100423.33
2023-03-05T12:02:26.143Z,100421.21
2023-03-05T12:04:53.089Z,100416.27
2023-03-05T12:07:27.501Z,100413.89
2023-03-05T12:09:55.598Z,100406.85
2023-03-05T12:12:22.728Z,100412.11
2023-03-05T12:15:28.625Z,100412.16
2023-03-05T12:18:04.886Z,100412.11
2023-03-05T12:20:49.033Z,100411.45
2023-03-05T12:23:18.798Z,100405.35
2023-03-05T12:25:48.884Z,100401.48
2023-03-05T12:28:17.519Z,100403.05
2023-03-05T12:30:44.782Z,100407.29
2023-03-05T12:33:41.250Z,100411.05
2023-03-05T12:36:17.368Z,100406.14
2023-03-05T12:38:56.418Z,100401.35
2023-03-05T12:41:24.490Z,100398.44
2023-03-05T12:44:07.221Z,100399.70
2023-03-05T12:46:37.714Z,100394.05
2023-03-05T12:49:17.387Z,100394.70
2023-03-05T12:51:55.341Z,100396.76
2023-03-05T12:54:42.052Z,100402.39
2023-03-05T12:57:18.409Z,100402.11
2023-03-05T12:59:45.944Z,100403.36
2023-03-05T13:02:40.574Z,100400.83
2023-03-05T13:05:17.284Z,100400.58
2023-03-05T13:07:44.218Z,100391.34
2023-03-05T13:10:22.530Z,100392.34
2023-03-05T13:12:52.652Z,100388.80
2023-03-05T13:15:19.676Z,100390.06
2023-03-05T13:17:52.546Z,100387.04
2023-03-05T13:20:33.520Z,100389.38
2023-03-05T13:23:14.783Z,100390.39
2023-03-05T13:25:42.882Z,100391.17
2023-03-05T13:28:12.360Z,100386.34
2023-03-05T13:30:39.332Z,100379.08
2023-03-05T13:33:15.751Z,100375.67
2023-03-05T13:35:46.873Z,100378.45
2023-03-05T13:38:34.242Z,100377.94
2023-03-05T13:41:22.420Z,100374.48
2023-03-05T13:43:53.512Z,100373.66
2023-03-05T13:46:27.545Z,100370.73
2023-03-05T13:48:54.900Z,100368.42
2023-03-05T13:51:22.036Z,100368.33
2023-03-05T13:53:49.309Z,100366.04
2023-03-05T13:56:18.300Z,100360.37
2023-03-05T13:58:48.667Z,100359.17
2023-03-05T14:01:36.017Z,100353.31
2023-03-05T14:04:06.908Z,100349.77
2023-03-05T14:06:35.784Z,100355.59
2023-03-05T14:09:08.563Z,100360.52
2023-03-05T14:11:42.566Z,100361.13
2023-03-05T14:14:20.188Z,100357.73
2023-03-05T14:16:50.817Z,100353.18
2023-03-05T14:19:47.670Z,100357.27
2023-03-05T14:22:32.776Z,100355.97
2023-03-05T14:24:59.888Z,100352.02
2023-03-05T14:27:27.627Z,100353.49
2023-03-05T14:30:05.935Z,100346.45
2023-03-05T14:32:35.214Z,100350.20
2023-03-05T14:35:04.597Z,100350.58
2023-03-05T14:37:37.347Z,100351.84
2023-03-05T14:40:05.831Z,100354.71
2023-03-05T14:42:55.509Z,100351.89
2023-03-05T14:45:24.942Z,100353.50
2023-03-05T14:47:54.208Z,100356.60
2023-03-05T14:50:23.258Z,100356.20
2023-03-05T14:52:59.012Z,100364.03
2023-03-05T14:55:27.674Z,100362.59
2023-03-05T14:58:10.599Z,100363.42
2023-03-05T15:00:37.790Z,100360.91
2023-03-05T15:03:04.906Z,100360.01
2023-03-05T15:05:36.678Z,100359.02
2023-03-05T15:08:04.990Z,100360.89
2023-03-05T15:10:33.611Z,100365.62
2023-03-05T15:13:01.608Z,100368.24
2023-03-05T15:15:28.584Z,100369.34
2023-03-05T15:18:01.453Z,100374.25
2023-03-05T15:20:29.489Z,100376.91
2023-03-05T15:22:56.326Z,100381.20
2023-03-05T15:25:23.678Z,100374.21
2023-03-05T15:27:50.701Z,100375.42
2023-03-05T15:30:27.327Z,100380.55
2023-03-05T15:32:55.255Z,100385.31
2023-03-05T15:35:22.445Z,100391.61
2023-03-05T15:37:49.603Z,100388.80
2023-03-05T15:40:17.236Z,100383.37
2023-03-05T15:42:44.459Z,100386.58
2023-03-05T15:45:11.477Z,100386.08
2023-03-05T15:47:38.639Z,100391.24
2023-03-05T15:50:07.109Z,100393.20
2023-03-05T15:52:34.211Z,100392.42
2023-03-05T15:55:01.609Z,100391.80
2023-03-05T15:57:29.178Z,100389.80
2023-03-05T15:59:56.104Z,100389.71
2023-03-05T16:02:24.530Z,100388.15
2023-03-05T16:04:51.511Z,100384.64
2023-03-05T16:07:23.592Z,100387.91
2023-03-05T16:09:51.406Z,100396.77
2023-03-05T16:12:21.203Z,100396.39
2023-03-05T16:14:52.140Z,100397.63
2023-03-05T16:17:19.723Z,100401.02
2023-03-05T16:19:47.953Z,100405.03
2023-03-05T16:22:15.018Z,100409.29
2023-03-05T16:24:43.868Z,100411.27
2023-03-05T16:27:11.599Z,100413.60
2023-03-05T16:29:39.266Z,100417.80
2023-03-05T16:32:10.971Z,100414.63
2023-03-05T16:34:38.619Z,100416.27
2023-03-05T16:37:06.473Z,100420.73
2023-03-05T16:39:37.263Z,100420.27
2023-03-05T16:42:05.136Z,100420.35
2023-03-05T16:44:32.156Z,100422.25
2023-03-05T16:46:59.709Z,100417.48
2023-03-05T16:49:27.464Z,100418.99
2023-03-05T16:51:54.515Z,100422.44
2023-03-05T16:54:21.622Z,100420.05
2023-03-05T16:56:48.554Z,100423.28
2023-03-05T16:59:15.688Z,100421.57
2023-03-05T17:01:42.924Z,100415.95
2023-03-05T17:04:10.047Z,100418.45
2023-03-05T17:06:37.695Z,100415.30
2023-03-05T17:09:04.919Z,100415.42
2023-03-05T17:11:33.264Z,100411.33
2023-03-05T17:14:03.602Z,100415.53
2023-03-05T17:16:30.505Z,100413.04
2023-03-05T17:19:00.941Z,100413.91
2023-03-05T17:21:28.754Z,100410.88
2023-03-05T17:23:56.254Z,100408.20
2023-03-05T17:26:25.696Z,100412.34
2023-03-05T17:28:54.424Z,100413.85
2023-03-05T17:31:21.517Z,100410.90
2023-03-05T17:33:48.622Z,100416.61
2023-03-05T17:36:19.031Z,100413.70
2023-03-05T17:38:47.085Z,100410.38
2023-03-05T17:41:14.892Z,100412.52
2023-03-05T17:43:41.930Z,100409.24
2023-03-05T17:46:09.680Z,100415.30
2023-03-05T17:48:38.563Z,100409.75
2023-03-05T17:51:06.817Z,100413.01
2023-03-05T17:53:34.684Z,100416.11
2023-03-05T17:56:01.947Z,100417.23
2023-03-05T17:58:29.299Z,100414.45
2023-03-05T18:00:56.272Z,100413.70
2023-03-05T18:03:23.303Z,100409.91
2023-03-05T18:05:50.209Z,100407.42
2023-03-05T18:08:18.513Z,100402.23
2023-03-05T18:10:45.514Z,100401.30
2023-03-05T18:13:12.520Z,100400.39
2023-03-05T18:15:46.739Z,100400.36
2023-03-05T18:18:17.312Z,100395.95
2023-03-05T18:20:44.386Z,100389.31
2023-03-05T18:23:12.027Z,100382.45
2023-03-05T18:25:39.124Z,100382.52
2023-03-05T18:28:11.095Z,100379.74
2023-03-05T18:30:39.981Z,100384.25
2023-03-05T18:33:07.628Z,100382.04
2023-03-05T18:35:36.163Z,100376.48
2023-03-05T18:38:03.173Z,100376.33
2023-03-05T18:40:32.032Z,100378.27
2023-03-05T18:43:00.213Z,100377.02
2023-03-05T18:45:27.419Z,100377.09
2023-03-05T18:47:56.111Z,100376.69
2023-03-05T18:50:24.912Z,100383.72
2023-03-05T18:52:52.452Z,100377.07
2023-03-05T18:55:22.408Z,100381.41
2023-03-05T18:57:49.955Z,100379.71
2023-03-05T19:00:18.807Z,100379.81
2023-03-05T19:02:46.118Z,100381.49
2023-03-05T19:05:17.162Z,100384.77
2023-03-05T19:07:46.945Z,100385.94
2023-03-05T19:10:15.986Z,100384.77
2023-03-05T19:13:23.685Z,100393.25
2023-03-05T19:15:51.091Z,100392.73
2023-03-05T19:18:28.431Z,100389.21
2023-03-05T19:21:01.272Z,100385.30
2023-03-05T19:23:28.527Z,100386.48
2023-03-05T19:25:55.666Z,100395.55
2023-03-05T19:28:22.768Z,100390.58
2023-03-05T19:30:50.767Z,100391.18
2023-03-05T19:33:24.167Z,100392.12
2023-03-05T19:35:52.834Z,100394.39
2023-03-05T19:38:20.072Z,100392.38
2023-03-05T19:40:48.424Z,100392.87
2023-03-05T19:43:17.208Z,100396.00
2023-03-05T19:45:45.126Z,100398.81
2023-03-05T19:48:12.366Z,100392.96
2023-03-05T19:50:39.782Z,100391.75
2023-03-05T19:53:07.307Z,100396.48
2023-03-05T19:55:38.022Z,100393.52
2023-03-05T19:58:07.052Z,100391.60
2023-03-05T20:00:35.678Z,100386.21
2023-03-05T20:03:02.996Z,100388.10
2023-03-05T20:05:30.864Z,100381.33
2023-03-05T20:07:58.517Z,100376.69
2023-03-05T20:10:25.935Z,100374.58
2023-03-05T20:12:54.502Z,100374.75
2023-03-05T20:15:22.903Z,100372.83
2023-03-05T20:17:52.145Z,100372.29
2023-03-05T20:20:21.204Z,100374.79
2023-03-05T20:22:48.188Z,100368.23
2023-03-05T20:25:16.713Z,100370.31
2023-03-05T20:27:43.669Z,100372.11
2023-03-05T20:30:12.306Z,100376.81
2023-03-05T20:32:40.395Z,100375.58
2023-03-05T20:35:16.478Z,100375.62
2023-03-05T20:38:22.403Z,100377.01
2023-03-05T20:40:50.812Z,100372.82
2023-03-05T20:43:17.942Z,100370.70
2023-03-05T20:45:47.201Z,100372.40
2023-03-05T20:48:15.036Z,100374.36
2023-03-05T20:50:42.041Z,100380.48
2023-03-05T20:53:10.322Z,100375.55
2023-03-05T20:55:37.375Z,100376.98
2023-03-05T20:58:05.308Z,100375.14
2023-03-05T21:00:34.629Z,100374.68
2023-03-05T21:03:01.616Z,100369.69
2023-03-05T21:05:29.952Z,100368.84
2023-03-05T21:07:57.728Z,100368.08
2023-03-05T21:10:26.506Z,100365.41
2023-03-05T21:12:54.101Z,100363.29
2023-03-05T21:15:23.963Z,100362.61
2023-03-05T21:17:53.292Z,100359.98
2023-03-05T21:20:22.893Z,100358.96
2023-03-05T21:22:49.765Z,100355.06
2023-03-05T21:25:22.199Z,100354.85
2023-03-05T21:28:06.771Z,100351.93
2023-03-05T21:30:36.927Z,100353.85
2023-03-05T21:33:08.919Z,100358.98
2023-03-05T21:35:36.385Z,100359.54
2023-03-05T21:38:04.160Z,100356.73
2023-03-05T21:40:31.514Z,100358.54
2023-03-05T21:42:58.572Z,100357.59
2023-03-05T21:45:28.901Z,100354.26
2023-03-05T21:47:58.097Z,100354.74
2023-03-05T21:50:25.200Z,100349.69
2023-03-05T21:52:53.429Z,100354.33
2023-03-05T21:55:44.613Z,100356.98
2023-03-05T21:58:20.545Z,100347.36
2023-03-05T22:00:48.024Z,100339.63
2023-03-05T22:03:14.906Z,100344.49
2023-03-05T22:05:43.460Z,100348.76
2023-03-05T22:08:10.727Z,100347.11
2023-03-05T22:10:44.118Z,100343.44
2023-03-05T22:13:11.621Z,100339.77
2023-03-05T22:15:55.333Z,100334.14
2023-03-05T22:18:24.901Z,100332.09
2023-03-05T22:20:52.172Z,100337.09
2023-03-05T22:23:21.511Z,100346.56
2023-03-05T22:25:58.605Z,100341.89
2023-03-05T22:28:25.861Z,100338.97
2023-03-05T22:30:52.926Z,100350.90
2023-03-05T22:33:22.637Z,100352.05
2023-03-05T22:35:52.339Z,100355.30
2023-03-05T22:38:19.953Z,100360.89
2023-03-05T22:40:51.530Z,100362.82
2023-03-05T22:43:19.314Z,100355.97
2023-03-05T22:45:46.293Z,100349.89
2023-03-05T22:48:15.411Z,100347.67
2023-03-05T22:50:43.466Z,100343.80
2023-03-05T22:53:11.592Z,100348.30
2023-03-05T22:55:40.658Z,100346.77
2023-03-05T22:58:08.757Z,100340.57
2023-03-05T23:00:36.681Z,100336.92
2023-03-05T23:03:04.533Z,100336.42
2023-03-05T23:05:33.347Z,100342.73
2023-03-05T23:08:00.792Z,100344.50
2023-03-05T23:10:28.916Z,100341.75
2023-03-05T23:12:58.117Z,100349.42
2023-03-05T23:15:26.326Z,100353.06
2023-03-05T23:17:53.424Z,100347.76
2023-03-05T23:20:22.584Z,100346.86
2023-03-05T23:22:52.248Z,100342.25
2023-03-05T23:25:19.955Z,100343.23
2023-03-05T23:27:47.179Z,100336.10
2023-03-05T23:30:21.217Z,100330.44
2023-03-05T23:32:50.900Z,100323.10
2023-03-05T23:35:20.579Z,100321.55
2023-03-05T23:37:48.890Z,100321.83
2023-03-05T23:40:24.292Z,100312.54
2023-03-05T23:42:51.552Z,100309.20
2023-03-05T23:45:26.311Z,100315.67
2023-03-05T23:47:55.160Z,100333.13
2023-03-05T23:50:23.071Z,100333.67
2023-03-05T23:52:51.073Z,100319.89
2023-03-05T23:55:23.889Z,100309.18
2023-03-05T23:57:52.510Z,100310.69
